Time;durP1;ratioP1;P1;durP2;ratioP2;P2;SDS_P1;SDS_P2;PMS_P1;PMS_P2;Temp;Humidity;BMP_temperature;BMP_pressure;BME280_temperature;BME280_humidity;BME280_pressure;Samples;Min_cycle;Max_cycle;Signal;HPM_P1;HPM_P2
2022/04/28 00:00:32;;;;;;;2.30;1.00;;;23.40;52.80;;;;;;4991999;28;20200;-85
2022/04/28 00:02:57;;;;;;;1.37;1.27;;;23.40;52.80;;;;;;4992198;28;20184;-85
2022/04/28 00:05:24;;;;;;;1.70;1.23;;;23.40;52.80;;;;;;5008025;28;20429;-84
2022/04/28 00:07:50;;;;;;;1.20;1.03;;;23.40;52.90;;;;;;5008356;28;20606;-85
2022/04/28 00:10:16;;;;;;;1.50;1.17;;;23.40;52.80;;;;;;5008209;28;20507;-85
2022/04/28 00:12:42;;;;;;;1.30;1.00;;;23.40;52.80;;;;;;5008428;28;20424;-85
2022/04/28 00:15:08;;;;;;;1.50;1.20;;;23.40;52.80;;;;;;5007627;28;20417;-85
2022/04/28 00:17:34;;;;;;;1.40;0.93;;;23.40;52.80;;;;;;4990106;28;20476;-85
2022/04/28 00:20:05;;;;;;;1.60;1.20;;;23.40;52.80;;;;;;4990494;28;20429;-85
2022/04/28 00:22:30;;;;;;;1.87;1.20;;;23.40;52.80;;;;;;4993081;28;20184;-85
2022/04/28 00:24:56;;;;;;;1.33;1.10;;;23.40;52.80;;;;;;4991793;28;20413;-85
2022/04/28 00:27:23;;;;;;;1.90;1.13;;;23.30;52.70;;;;;;4991798;28;20192;-85
2022/04/28 00:29:49;;;;;;;1.20;0.90;;;23.40;52.70;;;;;;4990810;28;20544;-84
2022/04/28 00:32:15;;;;;;;1.30;1.07;;;23.40;52.70;;;;;;5005951;28;20173;-84
2022/04/28 00:34:41;;;;;;;1.33;1.23;;;23.40;52.70;;;;;;4992830;28;20174;-85
2022/04/28 00:37:08;;;;;;;1.37;1.07;;;23.40;52.70;;;;;;5007864;28;20189;-85
2022/04/28 00:39:38;;;;;;;2.80;1.23;;;23.30;52.70;;;;;;4992308;28;20420;-84
2022/04/28 00:42:11;;;;;;;1.47;1.00;;;23.30;52.70;;;;;;4977340;28;20429;-85
2022/04/28 00:44:39;;;;;;;2.50;1.27;;;23.30;52.70;;;;;;5011111;28;20496;-85
2022/04/28 00:47:06;;;;;;;1.30;1.07;;;23.30;52.70;;;;;;5011039;28;20420;-84
2022/04/28 00:52:18;;;;;;;1.30;1.10;;;23.30;52.80;;;;;;5005751;28;20480;-85
2022/04/28 00:54:45;;;;;;;1.53;1.10;;;23.30;52.80;;;;;;4991842;28;20432;-84
2022/04/28 00:57:12;;;;;;;3.20;1.30;;;23.30;52.80;;;;;;5006193;28;20436;-85
2022/04/28 00:59:39;;;;;;;1.23;1.10;;;23.30;52.80;;;;;;5012467;28;20447;-85
2022/04/28 01:02:10;;;;;;;1.20;1.10;;;23.30;52.80;;;;;;5012192;28;20419;-84
2022/04/28 01:04:36;;;;;;;1.63;1.20;;;23.30;52.80;;;;;;5027181;28;20417;-84
2022/04/28 01:07:02;;;;;;;1.50;1.00;;;23.20;52.80;;;;;;5011221;28;20838;-85
2022/04/28 01:09:30;;;;;;;3.73;1.80;;;23.20;52.80;;;;;;5027037;28;20440;-85
2022/04/28 01:11:56;;;;;;;1.60;1.30;;;23.20;52.80;;;;;;5011853;28;20416;-85
2022/04/28 01:14:22;;;;;;;1.70;1.10;;;23.20;52.80;;;;;;5011348;28;20447;-85
2022/04/28 01:16:48;;;;;;;2.13;1.17;;;23.20;52.80;;;;;;5027572;28;20183;-84
2022/04/28 01:19:14;;;;;;;1.53;1.23;;;23.20;53.40;;;;;;5027920;28;20420;-85
2022/04/28 01:21:42;;;;;;;1.20;1.10;;;23.20;52.80;;;;;;4994366;28;20196;-85
2022/04/28 01:24:08;;;;;;;1.30;1.20;;;23.20;52.80;;;;;;5011532;28;20200;-85
2022/04/28 01:26:35;;;;;;;2.00;1.30;;;23.20;52.80;;;;;;5011723;28;20404;-85
2022/04/28 01:29:03;;;;;;;1.40;1.27;;;23.20;52.80;;;;;;5011578;28;20192;-85
2022/04/28 01:31:32;;;;;;;1.40;1.03;;;23.20;52.80;;;;;;5011435;28;20468;-84
2022/04/28 01:37:20;;;;;;;1.40;1.00;;;23.20;52.80;;;;;;5011143;28;20450;-85
2022/04/28 01:39:46;;;;;;;2.53;1.20;;;23.20;52.80;;;;;;5011384;28;20424;-85
2022/04/28 01:42:12;;;;;;;1.70;1.27;;;23.20;52.90;;;;;;5012274;28;20432;-85
2022/04/28 01:44:38;;;;;;;1.40;1.10;;;23.20;52.90;;;;;;5030207;28;20459;-85
2022/04/28 01:47:04;;;;;;;1.90;1.10;;;23.20;52.80;;;;;;5015604;28;20231;-85
2022/04/28 01:49:30;;;;;;;1.13;1.03;;;23.20;52.80;;;;;;5015520;28;20173;-85
2022/04/28 01:54:59;;;;;;;1.30;1.10;;;23.20;52.90;;;;;;5015606;28;20168;-85
2022/04/28 01:57:27;;;;;;;2.63;1.00;;;23.20;52.90;;;;;;5014433;28;20392;-85
2022/04/28 01:59:56;;;;;;;1.43;1.30;;;23.20;52.90;;;;;;5030844;28;20427;-85
2022/04/28 02:02:22;;;;;;;1.53;1.07;;;23.20;52.90;;;;;;5029727;28;20416;-85
2022/04/28 02:04:49;;;;;;;1.37;0.90;;;23.20;52.90;;;;;;5014553;28;20408;-84
2022/04/28 02:07:27;;;;;;;1.30;1.00;;;23.20;52.90;;;;;;5016058;28;20412;-85
2022/04/28 02:10:01;;;;;;;1.40;1.20;;;23.10;52.80;;;;;;5016281;28;20467;-84
2022/04/28 02:12:30;;;;;;;2.70;1.00;;;23.10;52.90;;;;;;5015918;28;20427;-84
2022/04/28 02:14:56;;;;;;;1.80;1.10;;;23.10;52.80;;;;;;5015801;28;20413;-84
2022/04/28 02:17:27;;;;;;;1.37;1.27;;;23.10;52.90;;;;;;5014371;28;20428;-85
2022/04/28 02:19:54;;;;;;;2.53;1.40;;;23.10;52.90;;;;;;5030932;28;20432;-85
2022/04/28 02:22:21;;;;;;;1.93;1.23;;;23.10;52.90;;;;;;5014015;28;20442;-85
2022/04/28 02:24:50;;;;;;;3.20;1.53;;;23.10;52.90;;;;;;5014568;28;20419;-84
2022/04/28 02:27:16;;;;;;;1.17;0.90;;;23.10;52.90;;;;;;5030724;28;20492;-85
2022/04/28 02:29:44;;;;;;;1.50;1.10;;;23.10;52.90;;;;;;5014289;28;20480;-84
2022/04/28 02:32:10;;;;;;;1.20;1.03;;;23.10;52.90;;;;;;5014566;28;20460;-84
2022/04/28 02:34:36;;;;;;;1.23;1.10;;;23.10;52.90;;;;;;4997507;28;20417;-85
2022/04/28 02:37:02;;;;;;;1.40;1.30;;;23.10;52.90;;;;;;5030501;28;20208;-84
2022/04/28 02:39:28;;;;;;;1.70;1.20;;;23.10;52.90;;;;;;5015158;28;20421;-84
2022/04/28 02:41:54;;;;;;;1.40;1.30;;;23.10;52.90;;;;;;5015618;28;20399;-84
2022/04/28 02:44:20;;;;;;;2.03;0.93;;;23.10;52.90;;;;;;5014504;28;20232;-84
2022/04/28 02:46:48;;;;;;;1.50;1.00;;;23.10;52.90;;;;;;5030692;28;20205;-84
2022/04/28 02:49:14;;;;;;;1.50;1.17;;;23.10;53.00;;;;;;5014978;28;20177;-84
2022/04/28 02:51:41;;;;;;;1.20;0.90;;;23.10;53.00;;;;;;5030349;28;20467;-84
2022/04/28 02:54:07;;;;;;;1.43;1.00;;;23.10;53.00;;;;;;5029881;28;20488;-84
2022/04/28 02:56:36;;;;;;;1.53;1.17;;;23.10;53.00;;;;;;5030201;28;20412;-84
2022/04/28 02:59:03;;;;;;;1.20;1.07;;;23.10;53.00;;;;;;5013846;28;20415;-84
2022/04/28 03:01:28;;;;;;;1.30;1.13;;;23.10;53.00;;;;;;5027688;28;20444;-84
2022/04/28 03:03:55;;;;;;;2.03;1.20;;;23.00;52.90;;;;;;5013922;28;20443;-84
2022/04/28 03:11:52;;;;;;;1.03;0.93;;;23.00;52.90;;;;;;5014390;28;20404;-84
2022/04/28 03:14:21;;;;;;;1.30;1.10;;;23.00;52.90;;;;;;5012427;28;20405;-84
2022/04/28 03:16:48;;;;;;;1.10;1.00;;;23.00;53.00;;;;;;5013620;28;20405;-84
2022/04/28 03:19:14;;;;;;;1.10;1.00;;;23.00;52.90;;;;;;5013347;28;20466;-84
2022/04/28 03:21:40;;;;;;;1.37;1.13;;;23.00;53.00;;;;;;5013573;28;20413;-84
2022/04/28 03:24:06;;;;;;;1.43;0.90;;;23.00;53.00;;;;;;5014382;28;20439;-85
2022/04/28 03:26:33;;;;;;;1.53;1.10;;;23.00;52.90;;;;;;5013765;28;20416;-84
2022/04/28 03:28:59;;;;;;;1.20;1.10;;;23.00;52.90;;;;;;5014273;28;20409;-85
2022/04/28 03:31:25;;;;;;;1.10;0.90;;;23.00;52.90;;;;;;5013472;28;20464;-84
2022/04/28 03:33:52;;;;;;;1.30;1.10;;;23.00;52.90;;;;;;5014087;28;20173;-84
2022/04/28 03:39:02;;;;;;;1.20;1.00;;;23.00;52.90;;;;;;5014687;28;20396;-84
2022/04/28 03:41:28;;;;;;;1.33;1.17;;;23.00;52.90;;;;;;5013177;28;20448;-84
2022/04/28 03:43:54;;;;;;;1.63;1.27;;;23.00;52.90;;;;;;5012451;28;20432;-84
2022/04/28 03:46:20;;;;;;;1.30;1.10;;;23.00;52.90;;;;;;5013087;28;20185;-84
2022/04/28 03:48:45;;;;;;;1.63;1.23;;;23.00;52.90;;;;;;5012294;28;20188;-84
2022/04/28 03:51:12;;;;;;;1.27;1.00;;;23.00;52.90;;;;;;5013689;28;20189;-84
2022/04/28 03:53:39;;;;;;;1.20;1.03;;;23.00;52.90;;;;;;5012580;28;20177;-85
2022/04/28 03:56:06;;;;;;;1.23;0.93;;;23.00;52.90;;;;;;5028776;28;20440;-84
2022/04/28 03:58:32;;;;;;;1.50;1.40;;;23.00;52.90;;;;;;5013209;28;20412;-84
2022/04/28 04:00:59;;;;;;;1.23;1.00;;;23.00;52.90;;;;;;5012397;28;20420;-84
2022/04/28 04:03:26;;;;;;;1.67;1.10;;;23.00;52.90;;;;;;5012844;28;20447;-84
2022/04/28 04:05:53;;;;;;;1.63;1.30;;;23.00;53.00;;;;;;5012155;28;20411;-85
2022/04/28 04:08:19;;;;;;;2.10;1.13;;;23.00;52.90;;;;;;4996403;28;20836;-85
2022/04/28 04:10:46;;;;;;;1.20;0.90;;;23.00;53.00;;;;;;5013218;28;20487;-84
2022/04/28 04:13:12;;;;;;;1.33;0.93;;;23.00;53.00;;;;;;5012177;28;20412;-85
2022/04/28 04:15:38;;;;;;;2.67;1.40;;;23.00;53.00;;;;;;4995534;28;20413;-85
2022/04/28 04:18:05;;;;;;;1.37;1.17;;;23.00;53.00;;;;;;5028591;28;20946;-84
2022/04/28 04:20:31;;;;;;;1.40;1.20;;;23.00;52.90;;;;;;5011827;28;20193;-85
2022/04/28 04:22:59;;;;;;;2.30;1.10;;;22.90;52.70;;;;;;4995752;28;20792;-84
2022/04/28 04:25:25;;;;;;;1.63;1.37;;;23.00;52.80;;;;;;5012701;28;20181;-85
2022/04/28 04:27:50;;;;;;;1.80;1.40;;;22.90;52.70;;;;;;5012486;28;20463;-85
2022/04/28 04:33:03;;;;;;;2.53;1.70;;;22.90;52.40;;;;;;5013694;28;20219;-85
2022/04/28 04:35:29;;;;;;;1.60;1.27;;;22.90;53.00;;;;;;4997776;28;20468;-85
2022/04/28 04:37:55;;;;;;;1.50;1.40;;;22.90;52.40;;;;;;5013962;28;20415;-85
2022/04/28 04:40:21;;;;;;;1.60;1.20;;;22.90;52.30;;;;;;5013020;28;20180;-85
2022/04/28 04:42:47;;;;;;;2.10;1.60;;;22.90;52.40;;;;;;5012844;28;20429;-85
2022/04/28 04:45:14;;;;;;;1.37;1.23;;;22.90;52.40;;;;;;5012881;28;20435;-85
2022/04/28 04:47:40;;;;;;;1.50;1.37;;;22.90;52.50;;;;;;5013738;28;20416;-85
2022/04/28 04:50:08;;;;;;;1.50;1.17;;;22.90;52.50;;;;;;5013075;28;20440;-85
2022/04/28 04:52:35;;;;;;;1.40;1.23;;;22.90;52.50;;;;;;4997269;28;20180;-85
2022/04/28 04:55:02;;;;;;;1.70;1.50;;;22.90;52.60;;;;;;4996975;28;20428;-85
2022/04/28 04:57:28;;;;;;;1.50;1.30;;;22.90;52.60;;;;;;5013864;28;20408;-84
2022/04/28 04:59:54;;;;;;;1.50;1.23;;;22.90;52.60;;;;;;5012916;28;20416;-84
2022/04/28 05:02:23;;;;;;;1.20;1.10;;;22.90;52.70;;;;;;5012160;28;20431;-84
2022/04/28 05:04:50;;;;;;;1.30;1.20;;;22.90;52.70;;;;;;5013598;28;20756;-84
2022/04/28 05:07:18;;;;;;;1.47;1.30;;;22.90;52.70;;;;;;5028195;28;20458;-84
2022/04/28 05:09:44;;;;;;;1.83;1.63;;;22.90;52.70;;;;;;4995669;28;20464;-84
2022/04/28 05:12:10;;;;;;;1.43;1.30;;;22.90;52.70;;;;;;4996341;28;20447;-84
2022/04/28 05:14:39;;;;;;;2.00;1.33;;;22.90;52.70;;;;;;5011382;28;20444;-85
2022/04/28 05:17:05;;;;;;;1.20;1.03;;;22.90;52.70;;;;;;5013620;28;20455;-84
2022/04/28 05:19:32;;;;;;;1.50;1.13;;;22.90;52.70;;;;;;5005137;28;20443;-84
2022/04/28 05:21:58;;;;;;;1.40;1.23;;;22.90;52.70;;;;;;4995607;28;20424;-84
2022/04/28 05:24:24;;;;;;;1.93;1.50;;;22.90;52.70;;;;;;5006891;28;20420;-84
2022/04/28 05:26:51;;;;;;;1.30;1.20;;;22.90;52.60;;;;;;4995115;28;20197;-84
2022/04/28 05:29:17;;;;;;;1.57;1.13;;;22.90;52.60;;;;;;4995030;28;20421;-85
2022/04/28 05:31:46;;;;;;;1.30;1.20;;;22.90;52.60;;;;;;4996780;28;20477;-85
2022/04/28 05:34:14;;;;;;;1.90;1.33;;;23.00;52.70;;;;;;4995936;28;20436;-85
2022/04/28 05:36:44;;;;;;;1.30;1.20;;;23.00;52.70;;;;;;4995775;28;20472;-85
2022/04/28 05:39:10;;;;;;;1.50;1.20;;;23.00;52.70;;;;;;4997239;28;20417;-84
2022/04/28 05:41:40;;;;;;;1.30;1.20;;;22.90;52.60;;;;;;4995751;28;20424;-83
2022/04/28 05:46:52;;;;;;;1.60;1.27;;;23.00;52.70;;;;;;4997122;28;20424;-83
2022/04/28 05:49:18;;;;;;;1.60;1.20;;;22.90;52.60;;;;;;5013373;28;20946;-83
2022/04/28 05:51:46;;;;;;;1.80;1.40;;;23.00;52.70;;;;;;4996586;28;20993;-83
2022/04/28 05:54:14;;;;;;;2.03;1.30;;;23.00;53.30;;;;;;5012168;28;20441;-83
2022/04/28 05:56:42;;;;;;;1.30;1.20;;;23.00;52.70;;;;;;4997921;28;20412;-83
2022/04/28 05:59:12;;;;;;;2.07;1.70;;;23.00;52.70;;;;;;4996678;28;20432;-83
2022/04/28 06:01:40;;;;;;;1.67;1.50;;;23.00;52.70;;;;;;4980079;28;20431;-84
2022/04/28 06:04:06;;;;;;;1.27;1.10;;;23.00;52.70;;;;;;5012002;28;20448;-84
2022/04/28 06:06:34;;;;;;;1.47;1.10;;;23.00;52.70;;;;;;4980249;28;20425;-83
2022/04/28 06:09:02;;;;;;;1.40;1.30;;;23.00;52.70;;;;;;4980144;28;20424;-84
2022/04/28 06:11:28;;;;;;;1.50;1.30;;;23.00;52.60;;;;;;5010712;28;20515;-84
2022/04/28 06:13:58;;;;;;;1.80;1.30;;;23.00;52.70;;;;;;4995458;28;20397;-84
2022/04/28 06:16:26;;;;;;;1.40;1.20;;;23.00;52.60;;;;;;5011984;28;20444;-84
2022/04/28 06:18:52;;;;;;;1.53;1.20;;;23.00;52.60;;;;;;4996324;28;20405;-84
2022/04/28 06:21:17;;;;;;;2.80;1.50;;;23.00;52.60;;;;;;4996522;28;20504;-84
2022/04/28 06:23:45;;;;;;;1.20;1.10;;;23.00;52.60;;;;;;5012226;28;20523;-84
2022/04/28 06:26:10;;;;;;;1.90;1.37;;;23.00;52.60;;;;;;5012134;28;20185;-84
2022/04/28 06:28:36;;;;;;;1.70;1.40;;;23.00;52.60;;;;;;4996033;28;20428;-84
2022/04/28 06:31:03;;;;;;;1.80;1.20;;;23.00;53.10;;;;;;5011612;28;20209;-84
2022/04/28 06:33:32;;;;;;;1.80;1.40;;;23.00;52.60;;;;;;4980007;28;20436;-84
2022/04/28 06:35:58;;;;;;;2.57;1.67;;;23.00;52.60;;;;;;4996257;28;20934;-84
2022/04/28 06:38:30;;;;;;;1.53;1.43;;;23.00;52.60;;;;;;5012247;28;20417;-84
2022/04/28 06:40:56;;;;;;;1.80;1.70;;;23.00;52.60;;;;;;4996198;28;20397;-84
2022/04/28 06:43:23;;;;;;;1.50;1.33;;;23.00;52.60;;;;;;5011666;28;20500;-84
2022/04/28 06:48:34;;;;;;;1.90;1.33;;;23.00;52.60;;;;;;4996630;28;20408;-84
2022/04/28 06:51:02;;;;;;;1.80;1.37;;;23.00;52.60;;;;;;4996819;28;20468;-83
2022/04/28 06:53:29;;;;;;;3.40;1.50;;;23.00;52.60;;;;;;4995020;28;20425;-83
2022/04/28 06:55:58;;;;;;;1.57;1.33;;;23.00;52.60;;;;;;4996097;28;20853;-84
2022/04/28 06:58:25;;;;;;;2.20;1.70;;;23.00;52.60;;;;;;4995260;28;20425;-84
2022/04/28 07:00:51;;;;;;;1.63;1.17;;;23.00;52.60;;;;;;4996775;28;20422;-84
2022/04/28 07:03:17;;;;;;;1.93;1.60;;;23.00;52.60;;;;;;5013001;28;20428;-83
2022/04/28 07:05:43;;;;;;;2.43;1.33;;;23.00;52.60;;;;;;4996844;28;20413;-83
2022/04/28 07:08:09;;;;;;;1.40;1.27;;;23.00;52.60;;;;;;4996034;28;20476;-84
2022/04/28 07:10:37;;;;;;;1.33;1.20;;;23.00;52.60;;;;;;4995826;28;20264;-84
2022/04/28 07:13:03;;;;;;;1.53;1.27;;;23.00;52.60;;;;;;4996429;28;20166;-84
2022/04/28 07:15:30;;;;;;;1.40;1.20;;;23.00;52.60;;;;;;5002808;28;20468;-84
2022/04/28 07:17:56;;;;;;;1.63;1.47;;;23.00;52.60;;;;;;5014270;28;20431;-84
2022/04/28 07:20:24;;;;;;;1.37;1.20;;;23.00;52.60;;;;;;5015884;28;20177;-84
2022/04/28 07:22:53;;;;;;;1.57;1.10;;;23.10;52.70;;;;;;5014366;28;20428;-84
2022/04/28 07:25:19;;;;;;;1.40;1.20;;;23.00;52.60;;;;;;5014024;28;20498;-84
2022/04/28 07:27:47;;;;;;;1.70;1.40;;;23.00;52.60;;;;;;5015089;28;20416;-84
2022/04/28 07:30:14;;;;;;;1.53;1.30;;;23.00;52.60;;;;;;5001726;28;20468;-84
2022/04/28 07:32:42;;;;;;;1.70;1.23;;;23.00;52.60;;;;;;4995286;28;20456;-84
2022/04/28 07:35:12;;;;;;;1.77;1.37;;;23.10;52.70;;;;;;5006827;28;20416;-84
2022/04/28 07:37:39;;;;;;;1.37;1.27;;;23.00;52.60;;;;;;5005351;28;20435;-84
2022/04/28 07:40:07;;;;;;;1.67;1.20;;;23.00;52.60;;;;;;5029089;28;20440;-84
2022/04/28 07:42:33;;;;;;;1.60;1.27;;;23.00;52.70;;;;;;5014847;28;20424;-84
2022/04/28 07:45:04;;;;;;;1.80;1.33;;;23.00;52.60;;;;;;5010280;28;20456;-84
2022/04/28 07:47:39;;;;;;;1.30;1.20;;;23.00;52.60;;;;;;4997029;28;20175;-84
2022/04/28 07:50:05;;;;;;;1.37;1.17;;;23.00;52.60;;;;;;4997099;28;20459;-84
2022/04/28 07:52:35;;;;;;;1.30;1.20;;;23.00;52.60;;;;;;5013924;28;20759;-84
2022/04/28 07:55:00;;;;;;;1.10;1.00;;;23.10;52.70;;;;;;5014341;28;20424;-84
2022/04/28 07:57:26;;;;;;;1.80;1.37;;;23.00;52.60;;;;;;5013552;28;20440;-84
2022/04/28 07:59:56;;;;;;;1.27;1.10;;;23.00;52.60;;;;;;5013463;28;20483;-85
2022/04/28 08:12:57;;;;;;;1.33;1.03;;;23.10;52.70;;;;;;5054949;28;20512;-84
2022/04/28 08:15:26;;;;;;;1.77;1.30;;;22.90;52.90;;;;;;5043990;28;20429;-84
2022/04/28 08:17:52;;;;;;;1.80;1.30;;;22.90;52.90;;;;;;5042538;28;20423;-85
2022/04/28 08:20:18;;;;;;;1.50;1.17;;;22.90;52.90;;;;;;5044254;28;20441;-84
2022/04/28 08:22:44;;;;;;;2.10;1.50;;;23.00;52.90;;;;;;5042673;28;20184;-84
2022/04/28 08:25:10;;;;;;;1.43;1.20;;;23.00;52.80;;;;;;5042055;28;20184;-84
2022/04/28 08:27:38;;;;;;;1.50;1.10;;;23.00;52.80;;;;;;5043430;28;20230;-85
2022/04/28 08:30:05;;;;;;;1.93;1.50;;;23.00;52.80;;;;;;5025959;28;20176;-84
2022/04/28 08:32:30;;;;;;;1.50;1.30;;;23.00;52.80;;;;;;5042722;28;20498;-84
2022/04/28 08:34:56;;;;;;;1.53;1.20;;;23.00;52.70;;;;;;5042560;28;20417;-84
2022/04/28 08:37:22;;;;;;;1.50;1.20;;;23.00;52.70;;;;;;5036005;28;20432;-84
2022/04/28 08:39:54;;;;;;;1.80;1.40;;;23.00;52.70;;;;;;5043717;28;20179;-83
2022/04/28 08:42:22;;;;;;;1.40;1.20;;;23.00;52.70;;;;;;5035214;28;20739;-83
2022/04/28 08:44:49;;;;;;;1.63;1.27;;;23.10;52.80;;;;;;5043743;28;20437;-84
2022/04/28 08:47:15;;;;;;;1.40;1.23;;;23.00;52.70;;;;;;5043368;28;20407;-84
2022/04/28 08:49:44;;;;;;;1.43;1.20;;;23.10;52.80;;;;;;5042927;28;20415;-84
2022/04/28 08:52:12;;;;;;;1.50;1.40;;;23.10;52.80;;;;;;5042817;28;20523;-84
2022/04/28 08:54:42;;;;;;;1.40;1.30;;;23.10;52.80;;;;;;5043612;28;20478;-84
2022/04/28 08:57:08;;;;;;;1.40;1.30;;;23.10;52.80;;;;;;5043933;28;20411;-84
2022/04/28 08:59:33;;;;;;;1.83;1.60;;;23.10;52.80;;;;;;5042952;28;20474;-83
2022/04/28 09:02:00;;;;;;;1.70;1.23;;;23.10;52.80;;;;;;5043234;28;20209;-82
2022/04/28 09:04:27;;;;;;;1.40;1.27;;;23.10;52.70;;;;;;5042629;28;20427;-83
2022/04/28 09:06:55;;;;;;;1.63;1.17;;;23.10;52.70;;;;;;5041862;28;20195;-83
2022/04/28 09:09:22;;;;;;;1.87;1.40;;;23.10;52.70;;;;;;5033180;28;20438;-83
2022/04/28 09:11:49;;;;;;;1.20;1.10;;;23.10;52.70;;;;;;5041128;28;20538;-83
2022/04/28 09:14:18;;;;;;;1.30;1.20;;;23.10;52.70;;;;;;5027696;28;20441;-83
2022/04/28 09:17:04;;;;;;;1.40;1.23;;;23.10;52.70;;;;;;5025558;28;20918;-82
2022/04/28 09:19:35;;;;;;;1.60;1.47;;;23.10;52.70;;;;;;4992370;28;20432;-82
2022/04/28 09:22:12;;;;;;;1.60;1.30;;;23.10;52.70;;;;;;5009031;28;20418;-83
2022/04/28 09:24:40;;;;;;;1.47;1.10;;;23.10;52.80;;;;;;5011055;28;20769;-83
2022/04/28 09:27:07;;;;;;;1.80;1.30;;;23.10;52.80;;;;;;5011972;28;20412;-83
2022/04/28 09:29:39;;;;;;;1.40;1.30;;;23.10;52.70;;;;;;5011460;28;20421;-84
2022/04/28 09:32:13;;;;;;;1.30;1.20;;;23.10;52.70;;;;;;4995435;28;20490;-83
2022/04/28 09:34:50;;;;;;;1.53;1.30;;;23.10;52.70;;;;;;5026531;28;20459;-83
2022/04/28 09:37:19;;;;;;;1.53;1.30;;;23.10;52.80;;;;;;5011431;28;20431;-83
2022/04/28 09:42:39;;;;;;;1.30;1.13;;;23.10;52.70;;;;;;5034889;28;20440;-84
2022/04/28 09:45:08;;;;;;;2.10;1.17;;;23.10;52.80;;;;;;5025376;28;20419;-83
2022/04/28 09:47:35;;;;;;;1.70;1.10;;;23.10;52.80;;;;;;5019190;28;20452;-84
2022/04/28 09:50:15;;;;;;;1.30;1.10;;;23.10;52.80;;;;;;5020058;28;20427;-83
2022/04/28 09:52:43;;;;;;;1.57;1.40;;;23.10;52.80;;;;;;5014527;28;20482;-83
2022/04/28 09:55:10;;;;;;;1.63;1.10;;;23.10;52.80;;;;;;5016399;28;20796;-83
2022/04/28 09:57:37;;;;;;;1.30;1.20;;;23.10;52.80;;;;;;5016187;28;20401;-83
2022/04/28 10:00:04;;;;;;;1.20;1.07;;;23.10;52.80;;;;;;5020141;28;20423;-83
2022/04/28 10:02:30;;;;;;;1.33;1.00;;;23.10;52.80;;;;;;5018104;28;20444;-82
2022/04/28 10:04:56;;;;;;;2.57;1.57;;;23.10;52.80;;;;;;5020429;28;20945;-82
2022/04/28 10:07:23;;;;;;;1.20;1.07;;;23.10;52.80;;;;;;5024574;28;20529;-84
2022/04/28 10:09:52;;;;;;;1.40;1.10;;;23.10;52.70;;;;;;5043786;28;20423;-84
2022/04/28 10:12:21;;;;;;;1.57;1.20;;;23.10;52.70;;;;;;5028051;28;20467;-84
2022/04/28 10:14:48;;;;;;;1.10;1.00;;;23.10;52.70;;;;;;5029138;28;20406;-84
2022/04/28 10:17:26;;;;;;;1.50;1.10;;;23.10;52.70;;;;;;5028881;28;20442;-84
2022/04/28 10:19:55;;;;;;;1.33;1.20;;;23.10;52.70;;;;;;5028573;28;20423;-84
2022/04/28 10:22:29;;;;;;;1.43;1.33;;;23.10;52.70;;;;;;5028229;28;20427;-84
2022/04/28 10:33:21;;;;;;;1.50;1.20;;;23.10;52.80;;;;;;5022916;28;20398;-84
2022/04/28 10:35:50;;;;;;;1.93;1.40;;;23.10;52.80;;;;;;5028612;28;20408;-84
2022/04/28 10:38:30;;;;;;;1.60;1.30;;;23.10;52.80;;;;;;5026968;28;20411;-84
2022/04/28 10:41:10;;;;;;;1.43;1.20;;;23.10;52.80;;;;;;5028395;28;21054;-84
2022/04/28 10:43:41;;;;;;;1.50;1.23;;;23.10;52.80;;;;;;5028155;28;20431;-84
2022/04/28 10:46:06;;;;;;;1.50;1.40;;;23.10;52.80;;;;;;5026153;28;20450;-85
2022/04/28 10:48:41;;;;;;;1.30;1.00;;;23.10;52.80;;;;;;5029046;28;20412;-84
2022/04/28 10:51:26;;;;;;;1.30;1.20;;;23.10;52.80;;;;;;5036099;28;20352;-84
2022/04/28 10:53:56;;;;;;;1.20;1.10;;;23.10;52.80;;;;;;5028222;28;20423;-85
2022/04/28 10:56:28;;;;;;;1.20;1.00;;;23.10;52.80;;;;;;5028597;28;20411;-84
2022/04/28 10:59:29;;;;;;;1.57;1.20;;;23.10;52.70;;;;;;5028461;28;20415;-84
2022/04/28 11:01:55;;;;;;;2.90;2.00;;;23.10;52.70;;;;;;5005897;28;20507;-85
2022/04/28 11:04:25;;;;;;;2.33;1.70;;;23.10;52.60;;;;;;5038027;28;20419;-84
2022/04/28 11:06:57;;;;;;;2.70;1.27;;;23.10;52.70;;;;;;5026074;28;20449;-85
2022/04/28 11:09:37;;;;;;;2.00;1.60;;;23.10;52.70;;;;;;5028875;28;20463;-84
2022/04/28 11:12:16;;;;;;;2.10;1.60;;;23.10;52.70;;;;;;5026759;28;20491;-83
2022/04/28 11:14:52;;;;;;;1.87;1.40;;;23.10;52.70;;;;;;5025580;28;20415;-84
2022/04/28 11:17:31;;;;;;;4.57;3.43;;;23.10;52.70;;;;;;5022602;28;20410;-83
2022/04/28 11:20:11;;;;;;;5.10;2.80;;;23.10;52.70;;;;;;5029233;28;20512;-83
2022/04/28 11:22:43;;;;;;;6.83;3.90;;;23.10;52.80;;;;;;5023034;28;20499;-84
2022/04/28 11:25:11;;;;;;;2.83;1.93;;;23.10;52.70;;;;;;5011603;28;20419;-83
2022/04/28 11:27:38;;;;;;;6.20;1.60;;;23.10;52.70;;;;;;5026548;28;20420;-83
2022/04/28 11:30:04;;;;;;;3.20;1.93;;;23.10;52.80;;;;;;5027843;28;20435;-84
2022/04/28 11:32:30;;;;;;;6.10;2.40;;;23.10;52.80;;;;;;5028686;28;20486;-83
2022/04/28 11:34:59;;;;;;;4.70;2.57;;;23.10;52.70;;;;;;5026835;28;20419;-84
2022/04/28 11:37:27;;;;;;;5.33;2.80;;;23.10;52.70;;;;;;5027626;28;20184;-84
2022/04/28 11:39:55;;;;;;;7.03;3.00;;;23.10;52.70;;;;;;5011009;28;20480;-84
2022/04/28 11:42:25;;;;;;;5.43;2.53;;;23.10;52.70;;;;;;5008596;28;20400;-84
2022/04/28 11:44:56;;;;;;;7.70;3.20;;;23.10;52.70;;;;;;5008661;28;20428;-84
2022/04/28 11:47:26;;;;;;;11.30;3.40;;;23.10;52.70;;;;;;5009389;28;20424;-84
2022/04/28 11:50:02;;;;;;;7.63;3.37;;;23.10;52.70;;;;;;5006395;28;20518;-84
2022/04/28 11:52:31;;;;;;;7.60;3.67;;;23.10;52.70;;;;;;5008339;28;20487;-84
2022/04/28 11:55:06;;;;;;;7.60;3.60;;;23.10;52.70;;;;;;5006496;28;20420;-83
2022/04/28 11:57:36;;;;;;;9.60;4.20;;;23.10;52.70;;;;;;5006876;28;20461;-84
2022/04/28 12:00:07;;;;;;;6.53;3.60;;;23.10;52.70;;;;;;5009804;28;20464;-83
2022/04/28 12:02:36;;;;;;;11.10;5.00;;;23.10;52.70;;;;;;5007467;28;20421;-83
2022/04/28 12:05:19;;;;;;;10.63;4.63;;;23.10;52.70;;;;;;4992588;28;20521;-83
2022/04/28 12:07:52;;;;;;;9.00;4.93;;;23.10;52.70;;;;;;5010419;28;20388;-84
2022/04/28 12:16:22;;;;;;;10.30;4.37;;;23.10;52.70;;;;;;5010194;28;20400;-84
2022/04/28 12:21:34;;;;;;;8.87;3.97;;;23.10;52.80;;;;;;5010387;28;20395;-84
2022/04/28 12:24:05;;;;;;;10.13;5.03;;;23.10;52.80;;;;;;4993676;28;20450;-84
2022/04/28 12:26:34;;;;;;;12.00;4.77;;;23.10;52.80;;;;;;5009096;28;20399;-84
2022/04/28 12:29:13;;;;;;;8.13;4.37;;;23.10;52.80;;;;;;5009538;28;20423;-84
2022/04/28 12:31:40;;;;;;;11.77;4.90;;;23.10;52.80;;;;;;4993183;28;20495;-84
2022/04/28 12:34:22;;;;;;;10.13;4.13;;;23.10;52.80;;;;;;5009040;28;20416;-84
2022/04/28 12:37:00;;;;;;;13.13;5.40;;;23.10;52.70;;;;;;5009675;28;20458;-83
2022/04/28 12:39:27;;;;;;;11.47;4.90;;;23.10;52.70;;;;;;5009455;28;20416;-85
2022/04/28 12:41:53;;;;;;;12.83;4.67;;;23.10;52.70;;;;;;4992894;28;20436;-85
2022/04/28 12:44:22;;;;;;;14.70;5.57;;;23.10;52.80;;;;;;5008493;28;20454;-85
2022/04/28 12:46:51;;;;;;;11.87;5.03;;;23.10;52.70;;;;;;5005997;28;20455;-85
2022/04/28 12:49:17;;;;;;;10.10;5.60;;;23.10;52.70;;;;;;5012141;28;20427;-85
2022/04/28 12:51:55;;;;;;;11.47;5.77;;;23.10;52.70;;;;;;5010834;28;20467;-85
2022/04/28 12:54:33;;;;;;;10.93;4.50;;;23.10;52.70;;;;;;5010312;28;20416;-85
2022/04/28 12:57:10;;;;;;;9.63;4.37;;;23.10;52.70;;;;;;5012336;28;20396;-85
2022/04/28 12:59:42;;;;;;;13.00;5.33;;;23.10;52.70;;;;;;5024627;28;20449;-85
2022/04/28 13:02:09;;;;;;;6.97;4.50;;;23.10;52.70;;;;;;5032495;28;20395;-84
2022/04/28 13:04:37;;;;;;;12.30;4.27;;;23.10;52.70;;;;;;5033313;28;20426;-85
2022/04/28 13:07:04;;;;;;;18.20;6.27;;;23.10;52.70;;;;;;5033149;28;20472;-85
2022/04/28 13:09:30;;;;;;;9.50;5.63;;;23.10;52.70;;;;;;5032703;28;20392;-85
2022/04/28 13:11:56;;;;;;;10.17;4.93;;;23.10;52.70;;;;;;5032225;28;20481;-85
2022/04/28 13:14:23;;;;;;;13.60;6.20;;;23.10;52.70;;;;;;5032190;28;20407;-84
2022/04/28 13:16:50;;;;;;;18.90;5.27;;;23.10;52.70;;;;;;5031965;28;20471;-85
2022/04/28 13:19:19;;;;;;;9.90;5.10;;;23.10;52.80;;;;;;5032762;28;20422;-85
2022/04/28 13:21:46;;;;;;;12.27;5.67;;;23.10;52.70;;;;;;5031938;28;20906;-85
2022/04/28 13:24:12;;;;;;;14.33;5.80;;;23.10;52.70;;;;;;5031579;28;20437;-85
2022/04/28 13:26:38;;;;;;;11.63;5.43;;;23.10;52.70;;;;;;5032287;28;20411;-85
2022/04/28 13:29:05;;;;;;;9.53;5.40;;;23.10;52.70;;;;;;5031662;28;20426;-85
2022/04/28 13:31:31;;;;;;;9.17;5.03;;;23.10;52.70;;;;;;5031497;28;20461;-85
2022/04/28 13:33:59;;;;;;;10.60;4.87;;;23.10;52.70;;;;;;5032734;28;20415;-85
2022/04/28 13:36:25;;;;;;;7.93;4.50;;;23.10;52.70;;;;;;5014347;28;20428;-86
2022/04/28 13:38:51;;;;;;;9.60;4.97;;;23.10;52.70;;;;;;5030826;28;20477;-86
2022/04/28 13:41:17;;;;;;;9.77;6.17;;;23.10;52.70;;;;;;5030235;28;20420;-88
2022/04/28 13:43:44;;;;;;;11.10;4.63;;;23.10;52.70;;;;;;5031701;28;20433;-86
2022/04/28 13:46:12;;;;;;;10.73;5.07;;;23.10;52.80;;;;;;5030335;28;20929;-86